createdAt,value
2022-10-05T00:00:47.729Z,14.73
2022-10-05T00:01:47.944Z,14.77
2022-10-05T00:02:48.076Z,14.73
2022-10-05T00:03:48.276Z,14.77
2022-10-05T00:04:48.478Z,14.73
2022-10-05T00:05:48.599Z,14.73
2022-10-05T00:06:49.022Z,14.73
2022-10-05T00:07:48.918Z,14.70
2022-10-05T00:08:49.098Z,14.70
2022-10-05T00:09:49.301Z,14.70
2022-10-05T00:10:49.469Z,14.70
2022-10-05T00:11:49.638Z,14.68
2022-10-05T00:12:49.798Z,14.66
2022-10-05T00:13:49.948Z,14.65
2022-10-05T00:14:50.149Z,14.65
2022-10-05T00:15:50.328Z,14.66
2022-10-05T00:16:51.029Z,14.66
2022-10-05T00:17:50.708Z,14.65
2022-10-05T00:18:50.874Z,14.66
2022-10-05T00:19:51.028Z,14.68
2022-10-05T00:20:51.218Z,14.66
2022-10-05T00:21:51.398Z,14.63
2022-10-05T00:22:51.568Z,14.66
2022-10-05T00:23:51.729Z,14.65
2022-10-05T00:24:51.899Z,14.65
2022-10-05T00:25:52.049Z,14.66
2022-10-05T00:26:57.635Z,14.66
2022-10-05T00:27:53.465Z,14.66
2022-10-05T00:28:52.621Z,14.66
2022-10-05T00:29:52.797Z,14.65
2022-10-05T00:30:52.965Z,14.65
2022-10-05T00:31:53.246Z,14.63
2022-10-05T00:32:58.631Z,14.62
2022-10-05T00:33:54.487Z,14.63
2022-10-05T00:34:53.668Z,14.63
2022-10-05T00:35:53.845Z,14.63
2022-10-05T00:36:54.018Z,14.65
2022-10-05T00:37:54.170Z,14.65
2022-10-05T00:38:54.369Z,14.65
2022-10-05T00:39:54.530Z,14.65
2022-10-05T00:40:54.728Z,14.63
2022-10-05T00:41:54.916Z,14.68
2022-10-05T00:42:55.037Z,14.65
2022-10-05T00:43:55.200Z,14.65
2022-10-05T00:44:55.370Z,14.65
2022-10-05T00:45:55.559Z,14.63
2022-10-05T00:46:55.697Z,14.65
2022-10-05T00:47:55.862Z,14.65
2022-10-05T00:48:56.045Z,14.65
2022-10-05T00:49:56.199Z,14.65
2022-10-05T00:50:56.379Z,14.65
2022-10-05T00:51:56.558Z,14.65
2022-10-05T00:52:56.718Z,14.63
2022-10-05T00:53:56.877Z,14.65
2022-10-05T00:54:57.038Z,14.66
2022-10-05T00:55:57.198Z,14.65
2022-10-05T00:56:57.377Z,14.63
2022-10-05T00:57:57.574Z,14.65
2022-10-05T00:58:57.718Z,14.63
2022-10-05T00:59:57.886Z,14.65
2022-10-05T01:00:58.088Z,14.65
2022-10-05T01:01:58.756Z,14.65
2022-10-05T01:02:58.407Z,14.66
2022-10-05T01:03:58.571Z,14.69
2022-10-05T01:04:58.757Z,14.69
2022-10-05T01:05:58.915Z,14.72
2022-10-05T01:06:59.106Z,14.72
2022-10-05T01:07:59.257Z,14.72
2022-10-05T01:08:59.470Z,14.77
2022-10-05T01:09:59.637Z,14.73
2022-10-05T01:10:59.811Z,14.78
2022-10-05T01:11:59.985Z,14.79
2022-10-05T01:13:00.136Z,14.81
2022-10-05T01:14:00.287Z,14.82
2022-10-05T01:15:00.486Z,14.82
2022-10-05T01:16:00.703Z,14.85
2022-10-05T01:17:00.895Z,14.85
2022-10-05T01:18:00.996Z,14.88
2022-10-05T01:19:01.167Z,14.91
2022-10-05T01:20:01.321Z,14.91
2022-10-05T01:21:01.498Z,14.92
2022-10-05T01:22:01.668Z,14.92
2022-10-05T01:23:01.838Z,14.96
2022-10-05T01:24:02.018Z,14.94
2022-10-05T01:25:02.185Z,14.96
2022-10-05T01:26:02.337Z,14.97
2022-10-05T01:27:02.508Z,14.97
2022-10-05T01:28:02.698Z,15.00
2022-10-05T01:29:02.857Z,14.99
2022-10-05T01:30:03.019Z,15.02
2022-10-05T01:31:03.198Z,15.02
2022-10-05T01:32:03.356Z,15.02
2022-10-05T01:33:03.519Z,15.03
2022-10-05T01:34:06.720Z,15.03
2022-10-05T01:35:04.888Z,15.03
2022-10-05T01:36:04.018Z,15.03
2022-10-05T01:37:04.197Z,15.03
2022-10-05T01:38:04.350Z,14.99
2022-10-05T01:39:04.579Z,14.99
2022-10-05T01:40:04.714Z,14.96
2022-10-05T01:41:04.860Z,14.99
2022-10-05T01:42:05.048Z,14.96
2022-10-05T01:43:05.210Z,14.96
2022-10-05T01:44:05.379Z,14.97
2022-10-05T01:45:05.535Z,14.96
2022-10-05T01:46:05.781Z,14.94
2022-10-05T01:47:05.937Z,14.94
2022-10-05T01:48:06.187Z,14.92
2022-10-05T01:49:06.298Z,14.91
2022-10-05T01:50:06.461Z,14.91
2022-10-05T01:51:06.649Z,14.91
2022-10-05T01:52:06.828Z,14.86
2022-10-05T01:53:06.989Z,14.86
2022-10-05T01:54:07.148Z,14.85
2022-10-05T01:55:07.327Z,14.85
2022-10-05T01:56:07.495Z,14.82
2022-10-05T01:57:07.673Z,14.82
2022-10-05T01:58:07.828Z,14.84
2022-10-05T01:59:08.027Z,14.81
2022-10-05T02:00:08.186Z,14.79
2022-10-05T02:01:08.443Z,14.79
2022-10-05T02:02:08.622Z,14.78
2022-10-05T02:03:08.731Z,14.77
2022-10-05T02:04:08.877Z,14.73
2022-10-05T02:05:09.086Z,14.72
2022-10-05T02:06:09.236Z,14.72
2022-10-05T02:07:09.430Z,14.69
2022-10-05T02:08:09.547Z,14.69
2022-10-05T02:09:09.706Z,14.69
2022-10-05T02:10:09.865Z,14.68
2022-10-05T02:11:10.026Z,14.68
2022-10-05T02:12:10.206Z,14.69
2022-10-05T02:13:10.367Z,14.70
2022-10-05T02:14:10.526Z,14.69
2022-10-05T02:15:10.695Z,14.68
2022-10-05T02:16:10.880Z,14.68
2022-10-05T02:17:11.035Z,14.68
2022-10-05T02:18:11.196Z,14.68
2022-10-05T02:19:11.357Z,14.66
2022-10-05T02:20:11.526Z,14.65
2022-10-05T02:21:11.686Z,14.66
2022-10-05T02:22:11.867Z,14.65
2022-10-05T02:23:12.026Z,14.65
2022-10-05T02:24:12.186Z,14.62
2022-10-05T02:25:12.350Z,14.62
2022-10-05T02:26:12.518Z,14.60
2022-10-05T02:27:12.675Z,14.60
2022-10-05T02:28:12.868Z,14.58
2022-10-05T02:29:13.024Z,14.55
2022-10-05T02:30:16.600Z,14.55
2022-10-05T02:31:13.491Z,14.53
2022-10-05T02:32:13.554Z,14.54
2022-10-05T02:33:13.713Z,14.54
2022-10-05T02:34:13.875Z,14.51
2022-10-05T02:35:14.025Z,14.50
2022-10-05T02:36:14.196Z,14.48
2022-10-05T02:37:14.376Z,14.48
2022-10-05T02:38:14.547Z,14.48
2022-10-05T02:39:14.703Z,14.48
2022-10-05T02:40:14.874Z,14.47
2022-10-05T02:41:15.033Z,14.48
2022-10-05T02:42:15.216Z,14.48
2022-10-05T02:43:15.364Z,14.51
2022-10-05T02:44:15.517Z,14.48
2022-10-05T02:45:15.712Z,14.45
2022-10-05T02:46:15.904Z,14.47
2022-10-05T02:47:16.083Z,14.47
2022-10-05T02:48:16.246Z,14.45
2022-10-05T02:49:16.405Z,14.45
2022-10-05T02:50:16.572Z,14.43
2022-10-05T02:51:16.725Z,14.44
2022-10-05T02:52:16.895Z,14.44
2022-10-05T02:53:17.074Z,14.43
2022-10-05T02:54:17.227Z,14.44
2022-10-05T02:55:17.416Z,14.43
2022-10-05T02:56:17.575Z,14.41
2022-10-05T02:57:17.815Z,14.44
2022-10-05T02:58:17.954Z,14.43
2022-10-05T02:59:18.105Z,14.44
2022-10-05T03:00:18.279Z,14.44
2022-10-05T03:01:18.450Z,14.44
2022-10-05T03:02:18.640Z,14.44
2022-10-05T03:03:18.763Z,14.45
2022-10-05T03:04:18.915Z,14.45
2022-10-05T03:05:19.125Z,14.45
2022-10-05T03:06:19.275Z,14.44
2022-10-05T03:07:19.455Z,14.45
2022-10-05T03:08:19.626Z,14.45
2022-10-05T03:09:19.785Z,14.48
2022-10-05T03:10:19.956Z,14.47
2022-10-05T03:11:20.126Z,14.48
2022-10-05T03:12:20.312Z,14.50
2022-10-05T03:13:20.455Z,14.51
2022-10-05T03:14:20.615Z,14.53
2022-10-05T03:15:20.824Z,14.54
2022-10-05T03:16:21.024Z,14.58
2022-10-05T03:17:21.148Z,14.60
2022-10-05T03:18:21.305Z,14.60
2022-10-05T03:19:21.493Z,14.63
2022-10-05T03:20:21.624Z,14.65
2022-10-05T03:21:21.813Z,14.66
2022-10-05T03:22:21.974Z,14.68
2022-10-05T03:23:22.135Z,14.68
2022-10-05T03:24:22.305Z,14.69
2022-10-05T03:25:22.497Z,14.70
2022-10-05T03:26:22.650Z,14.73
2022-10-05T03:27:22.807Z,14.73
2022-10-05T03:28:23.042Z,14.73
2022-10-05T03:29:23.135Z,14.78
2022-10-05T03:30:23.305Z,14.78
2022-10-05T03:31:23.528Z,14.81
2022-10-05T03:32:23.627Z,14.82
2022-10-05T03:33:23.794Z,14.79
2022-10-05T03:34:23.956Z,14.82
2022-10-05T03:35:24.155Z,14.84
2022-10-05T03:36:24.334Z,14.85
2022-10-05T03:37:24.494Z,14.88
2022-10-05T03:38:24.656Z,14.85
2022-10-05T03:39:24.814Z,14.86
2022-10-05T03:40:24.985Z,14.88
2022-10-05T03:41:25.207Z,14.88
2022-10-05T03:42:25.345Z,14.91
2022-10-05T03:43:25.535Z,14.91
2022-10-05T03:44:25.696Z,14.92
2022-10-05T03:45:25.895Z,14.92
2022-10-05T03:46:26.130Z,14.96
2022-10-05T03:47:26.245Z,14.97
2022-10-05T03:48:26.407Z,14.97
2022-10-05T03:49:26.589Z,14.99
2022-10-05T03:50:26.745Z,15.00
2022-10-05T03:51:26.924Z,15.03
2022-10-05T03:52:27.095Z,15.03
2022-10-05T03:53:27.254Z,15.03
2022-10-05T03:54:27.429Z,15.04
2022-10-05T03:55:27.584Z,15.06
2022-10-05T03:56:27.776Z,15.07
2022-10-05T03:57:27.934Z,15.07
2022-10-05T03:58:28.106Z,15.10
2022-10-05T03:59:32.391Z,15.09
2022-10-05T04:00:28.461Z,15.10
2022-10-05T04:01:28.686Z,15.11
2022-10-05T04:02:28.855Z,15.15
2022-10-05T04:03:28.995Z,15.14
2022-10-05T04:04:29.165Z,15.15
2022-10-05T04:05:29.338Z,15.15
2022-10-05T04:06:29.524Z,15.17
2022-10-05T04:07:29.684Z,15.17
2022-10-05T04:08:29.868Z,15.15
2022-10-05T04:09:30.004Z,15.17
2022-10-05T04:10:30.166Z,15.17
2022-10-05T04:11:30.345Z,15.17
2022-10-05T04:12:30.494Z,15.18
2022-10-05T04:13:30.694Z,15.19
2022-10-05T04:14:30.857Z,15.18
2022-10-05T04:15:31.104Z,15.17
2022-10-05T04:16:31.232Z,15.14
2022-10-05T04:17:31.394Z,15.14
2022-10-05T04:18:31.555Z,15.15
2022-10-05T04:19:31.744Z,15.15
2022-10-05T04:20:31.923Z,15.14
2022-10-05T04:21:32.095Z,15.11
2022-10-05T04:22:32.259Z,15.11
2022-10-05T04:23:32.412Z,15.10
2022-10-05T04:24:32.603Z,15.10
2022-10-05T04:25:32.793Z,15.10
2022-10-05T04:26:32.966Z,15.10
2022-10-05T04:27:33.129Z,15.11
2022-10-05T04:28:33.342Z,15.10
2022-10-05T04:29:33.443Z,15.11
2022-10-05T04:30:33.605Z,15.15
2022-10-05T04:31:33.865Z,15.14
2022-10-05T04:32:33.965Z,15.14
2022-10-05T04:33:34.123Z,15.15
2022-10-05T04:34:34.331Z,15.17
2022-10-05T04:35:34.495Z,15.14
2022-10-05T04:36:34.664Z,15.14
2022-10-05T04:37:34.825Z,15.14
2022-10-05T04:38:34.997Z,15.14
2022-10-05T04:39:35.155Z,15.17
2022-10-05T04:40:35.322Z,15.15
2022-10-05T04:41:35.504Z,15.15
2022-10-05T04:42:35.663Z,15.14
2022-10-05T04:43:35.814Z,15.14
2022-10-05T04:44:35.982Z,15.15
2022-10-05T04:45:36.143Z,15.17
2022-10-05T04:46:36.339Z,15.18
2022-10-05T04:47:36.494Z,15.19
2022-10-05T04:48:36.676Z,15.21
2022-10-05T04:49:36.846Z,15.21
2022-10-05T04:50:37.005Z,15.24
2022-10-05T04:51:37.205Z,15.21
2022-10-05T04:52:37.373Z,15.24
2022-10-05T04:53:37.544Z,15.27
2022-10-05T04:54:37.694Z,15.25
2022-10-05T04:55:37.858Z,15.27
2022-10-05T04:56:38.051Z,15.28
2022-10-05T04:57:38.180Z,15.27
2022-10-05T04:58:42.179Z,15.28
2022-10-05T04:59:38.514Z,15.29
2022-10-05T05:00:38.737Z,15.29
2022-10-05T05:01:38.875Z,15.28
2022-10-05T05:02:39.061Z,15.27
2022-10-05T05:03:39.287Z,15.29
2022-10-05T05:04:39.411Z,15.28
2022-10-05T05:05:53.309Z,15.28
2022-10-05T05:06:40.774Z,15.28
2022-10-05T05:07:39.965Z,15.31
2022-10-05T05:08:40.123Z,15.33
2022-10-05T05:09:40.305Z,15.33
2022-10-05T05:10:40.492Z,15.33
2022-10-05T05:11:40.788Z,15.33
2022-10-05T05:12:40.804Z,15.33
2022-10-05T05:13:41.005Z,15.33
2022-10-05T05:14:41.184Z,15.33
2022-10-05T05:15:41.416Z,15.35
2022-10-05T05:16:41.575Z,15.35
2022-10-05T05:17:41.724Z,15.35
2022-10-05T05:18:41.913Z,15.33
2022-10-05T05:19:42.061Z,15.35
2022-10-05T05:20:42.222Z,15.33
2022-10-05T05:21:42.387Z,15.35
2022-10-05T05:22:42.536Z,15.36
2022-10-05T05:23:42.723Z,15.36
2022-10-05T05:24:42.900Z,15.40
2022-10-05T05:25:43.094Z,15.42
2022-10-05T05:26:43.316Z,15.40
2022-10-05T05:27:43.455Z,15.42
2022-10-05T05:28:43.643Z,15.44
2022-10-05T05:29:43.824Z,15.44
2022-10-05T05:30:44.016Z,15.44
2022-10-05T05:31:44.311Z,15.46
2022-10-05T05:32:44.366Z,15.46
2022-10-05T05:33:44.544Z,15.44
2022-10-05T05:34:44.724Z,15.49
2022-10-05T05:35:44.895Z,15.49
2022-10-05T05:36:45.278Z,15.51
2022-10-05T05:37:45.206Z,15.51
2022-10-05T05:38:45.363Z,15.52
2022-10-05T05:39:45.538Z,15.55
2022-10-05T05:40:45.697Z,15.54
2022-10-05T05:41:45.875Z,15.55
2022-10-05T05:42:46.056Z,15.57
2022-10-05T05:43:46.208Z,15.55
2022-10-05T05:44:46.398Z,15.57
2022-10-05T05:45:46.573Z,15.58
2022-10-05T05:47:14.543Z,15.59
2022-10-05T05:47:47.998Z,15.62
2022-10-05T05:48:47.154Z,15.67
2022-10-05T05:49:47.283Z,15.70
2022-10-05T05:50:47.469Z,15.70
2022-10-05T05:51:47.664Z,15.73
2022-10-05T05:52:47.813Z,15.76
2022-10-05T05:53:47.983Z,15.77
2022-10-05T05:54:48.165Z,15.79
2022-10-05T05:55:48.304Z,15.83
2022-10-05T05:56:48.778Z,15.84
2022-10-05T05:57:48.655Z,15.90
2022-10-05T05:58:48.824Z,15.91
2022-10-05T05:59:49.013Z,15.92
2022-10-05T06:00:49.194Z,15.95
2022-10-05T06:01:49.494Z,15.97
2022-10-05T06:02:49.645Z,16.00
2022-10-05T06:03:49.755Z,16.02
2022-10-05T06:04:49.943Z,16.08
2022-10-05T06:05:50.115Z,16.10
2022-10-05T06:06:50.470Z,16.12
2022-10-05T06:07:50.473Z,16.16
2022-10-05T06:08:50.653Z,16.16
2022-10-05T06:09:50.843Z,16.20
2022-10-05T06:10:51.034Z,16.21
2022-10-05T06:11:51.232Z,16.26
2022-10-05T06:12:51.400Z,16.31
2022-10-05T06:13:51.564Z,16.33
2022-10-05T06:14:51.745Z,16.35
2022-10-05T06:15:51.904Z,16.39
2022-10-05T06:16:52.286Z,16.42
2022-10-05T06:17:52.254Z,16.46
2022-10-05T06:18:52.443Z,16.49
2022-10-05T06:19:52.615Z,16.54
2022-10-05T06:20:52.795Z,16.58
2022-10-05T06:21:52.974Z,16.68
2022-10-05T06:22:53.158Z,16.74
2022-10-05T06:23:53.334Z,16.83
2022-10-05T06:24:53.516Z,16.87
2022-10-05T06:25:53.694Z,16.90
2022-10-05T06:26:53.921Z,16.94
2022-10-05T06:27:54.213Z,17.01
2022-10-05T06:28:54.226Z,17.06
2022-10-05T06:29:54.404Z,17.12
2022-10-05T06:30:54.582Z,17.19
2022-10-05T06:31:58.718Z,17.23
2022-10-05T06:32:54.943Z,17.27
2022-10-05T06:33:55.127Z,17.30
2022-10-05T06:34:55.304Z,17.33
2022-10-05T06:35:55.492Z,17.36
2022-10-05T06:36:55.684Z,17.42
2022-10-05T06:37:55.867Z,17.46
2022-10-05T06:38:56.036Z,17.49
2022-10-05T06:40:00.758Z,17.52
2022-10-05T06:40:57.365Z,17.56
2022-10-05T06:41:56.575Z,17.63
2022-10-05T06:42:56.817Z,17.64
2022-10-05T06:43:56.915Z,17.68
2022-10-05T06:44:57.095Z,17.72
2022-10-05T06:45:57.339Z,17.79
2022-10-05T06:46:57.464Z,17.82
2022-10-05T06:48:00.452Z,17.85
2022-10-05T06:48:58.815Z,17.89
2022-10-05T06:49:57.985Z,17.92
2022-10-05T06:50:58.174Z,17.92
2022-10-05T06:51:58.385Z,18.00
2022-10-05T06:52:58.549Z,18.01
2022-10-05T06:53:58.684Z,18.07
2022-10-05T06:54:58.867Z,18.10
2022-10-05T06:55:59.047Z,18.13
2022-10-05T06:56:59.246Z,18.18
2022-10-05T06:57:59.416Z,18.20
2022-10-05T06:58:59.604Z,18.26
2022-10-05T06:59:59.796Z,18.31
2022-10-05T07:01:00.010Z,18.33
2022-10-05T07:02:00.232Z,18.34
2022-10-05T07:03:00.275Z,18.38
2022-10-05T07:04:00.454Z,18.44
2022-10-05T07:05:00.635Z,18.52
2022-10-05T07:06:00.824Z,18.59
2022-10-05T07:07:00.998Z,18.66
2022-10-05T07:08:01.194Z,18.75
2022-10-05T07:09:01.374Z,18.86
2022-10-05T07:10:01.515Z,18.98
2022-10-05T07:11:01.697Z,19.08
2022-10-05T07:12:05.134Z,19.19
2022-10-05T07:13:02.063Z,19.26
2022-10-05T07:14:02.255Z,19.30
2022-10-05T07:15:02.405Z,19.31
2022-10-05T07:16:02.622Z,19.36
2022-10-05T07:17:02.763Z,19.40
2022-10-05T07:18:02.948Z,19.45
2022-10-05T07:19:03.137Z,19.48
2022-10-05T07:20:03.296Z,19.52
2022-10-05T07:21:03.486Z,19.51
2022-10-05T07:22:03.692Z,19.54
2022-10-05T07:23:03.856Z,19.55
2022-10-05T07:24:04.006Z,19.54
2022-10-05T07:25:04.166Z,19.52
2022-10-05T07:26:04.375Z,19.52
2022-10-05T07:27:04.539Z,19.54
2022-10-05T07:28:04.742Z,19.54
2022-10-05T07:29:04.836Z,19.54
2022-10-05T07:30:05.027Z,19.62
2022-10-05T07:31:05.280Z,19.64
2022-10-05T07:32:05.386Z,19.73
2022-10-05T07:33:05.526Z,19.85
2022-10-05T07:34:05.708Z,19.95
2022-10-05T07:35:05.884Z,20.07
2022-10-05T07:36:06.065Z,20.19
2022-10-05T07:37:06.257Z,20.28
2022-10-05T07:38:06.408Z,20.36
2022-10-05T07:39:06.597Z,20.40
2022-10-05T07:40:06.757Z,20.48
2022-10-05T07:41:06.941Z,20.52
2022-10-05T07:42:07.146Z,20.62
2022-10-05T07:43:07.277Z,20.70
2022-10-05T07:44:12.420Z,20.78
2022-10-05T07:45:08.679Z,20.87
2022-10-05T07:46:07.864Z,20.95
2022-10-05T07:47:07.979Z,20.97
2022-10-05T07:48:08.117Z,20.99
2022-10-05T07:49:08.297Z,21.05
2022-10-05T07:50:08.485Z,21.11
2022-10-05T07:51:08.660Z,21.18
2022-10-05T07:52:08.856Z,21.27
2022-10-05T07:53:09.034Z,21.36
2022-10-05T07:54:09.229Z,21.43
2022-10-05T07:55:09.391Z,21.55
2022-10-05T07:56:09.561Z,21.69
2022-10-05T07:57:09.776Z,21.73
2022-10-05T07:58:09.917Z,21.82
2022-10-05T07:59:10.106Z,21.85
2022-10-05T08:00:10.288Z,21.92
2022-10-05T08:01:10.478Z,21.95
2022-10-05T08:02:10.778Z,21.89
2022-10-05T08:03:10.904Z,21.85
2022-10-05T08:04:11.011Z,21.80
2022-10-05T08:05:11.216Z,21.76
2022-10-05T08:06:11.394Z,21.77
2022-10-05T08:07:11.595Z,21.80
2022-10-05T08:08:14.249Z,21.88
2022-10-05T08:09:12.879Z,21.96
2022-10-05T08:10:12.050Z,22.06
2022-10-05T08:11:12.217Z,22.17
2022-10-05T08:12:12.389Z,22.33
2022-10-05T08:13:12.610Z,22.45
2022-10-05T08:14:12.714Z,22.60
2022-10-05T08:15:12.879Z,22.80
2022-10-05T08:16:13.089Z,23.03
2022-10-05T08:17:13.239Z,23.32
2022-10-05T08:18:13.380Z,23.76
2022-10-05T08:19:13.572Z,24.24
2022-10-05T08:20:13.828Z,24.61
2022-10-05T08:21:13.931Z,25.10
2022-10-05T08:22:14.115Z,25.73
2022-10-05T08:23:14.290Z,26.37
2022-10-05T08:24:14.470Z,26.85
2022-10-05T08:25:14.644Z,27.44
2022-10-05T08:26:14.815Z,27.51
2022-10-05T08:27:15.022Z,27.35
2022-10-05T08:28:15.211Z,27.27
2022-10-05T08:29:15.351Z,27.70
2022-10-05T08:30:15.522Z,28.00
2022-10-05T08:31:15.776Z,28.10
2022-10-05T08:32:15.894Z,28.15
2022-10-05T08:33:16.067Z,28.63
2022-10-05T08:34:16.232Z,29.13
2022-10-05T08:35:16.423Z,29.24
2022-10-05T08:36:16.603Z,29.17
2022-10-05T08:37:16.795Z,29.22
2022-10-05T08:38:16.935Z,29.01
2022-10-05T08:39:17.114Z,28.89
2022-10-05T08:40:17.283Z,29.10
2022-10-05T08:41:17.475Z,29.44
2022-10-05T08:42:17.653Z,29.86
2022-10-05T08:43:17.833Z,30.37
2022-10-05T08:44:18.002Z,30.80
2022-10-05T08:45:18.184Z,30.88
2022-10-05T08:46:18.416Z,30.55
2022-10-05T08:47:18.567Z,30.02
2022-10-05T08:48:18.715Z,29.56
2022-10-05T08:49:18.899Z,29.22
2022-10-05T08:50:19.198Z,28.93
2022-10-05T08:51:19.225Z,28.66
2022-10-05T08:52:19.447Z,28.59
2022-10-05T08:53:19.606Z,28.49
2022-10-05T08:54:19.784Z,28.49
2022-10-05T08:55:19.966Z,28.33
2022-10-05T08:56:22.297Z,28.14
2022-10-05T08:57:21.327Z,28.05
2022-10-05T08:58:20.498Z,27.95
2022-10-05T08:59:20.666Z,27.93
2022-10-05T09:00:20.851Z,27.98
2022-10-05T09:01:21.080Z,27.89
2022-10-05T09:02:21.262Z,27.68
2022-10-05T09:03:21.358Z,27.35
2022-10-05T09:04:21.507Z,27.03
2022-10-05T09:05:21.671Z,26.77
2022-10-05T09:06:21.837Z,26.58
2022-10-05T09:07:22.009Z,26.41
2022-10-05T09:08:22.175Z,26.34
2022-10-05T09:09:22.357Z,26.33
2022-10-05T09:10:22.511Z,26.34
2022-10-05T09:11:22.678Z,26.34
2022-10-05T09:12:22.889Z,26.40
2022-10-05T09:13:23.019Z,26.90
2022-10-05T09:14:23.228Z,27.17
2022-10-05T09:15:26.259Z,27.15
2022-10-05T09:16:23.614Z,26.96
2022-10-05T09:17:23.762Z,26.68
2022-10-05T09:18:23.899Z,26.38
2022-10-05T09:19:24.069Z,26.21
2022-10-05T09:20:24.230Z,26.06
2022-10-05T09:21:24.422Z,25.96
2022-10-05T09:22:24.580Z,25.87
2022-10-05T09:23:24.742Z,25.83
2022-10-05T09:24:24.909Z,25.73
2022-10-05T09:25:25.070Z,25.66
2022-10-05T09:26:25.241Z,25.59
2022-10-05T09:27:25.413Z,25.51
2022-10-05T09:28:25.635Z,25.48
2022-10-05T09:29:25.723Z,25.38
2022-10-05T09:30:25.903Z,25.31
2022-10-05T09:31:26.103Z,25.26
2022-10-05T09:32:26.273Z,25.17
2022-10-05T09:33:26.431Z,25.21
2022-10-05T09:34:26.604Z,25.26
2022-10-05T09:35:26.773Z,25.28
2022-10-05T09:36:26.962Z,25.38
2022-10-05T09:37:27.162Z,25.55
2022-10-05T09:38:27.304Z,25.77
2022-10-05T09:39:27.483Z,26.05
2022-10-05T09:40:27.653Z,26.28
2022-10-05T09:41:27.833Z,26.47
2022-10-05T09:42:28.044Z,26.63
2022-10-05T09:43:28.175Z,26.89
2022-10-05T09:44:28.362Z,27.10
2022-10-05T09:45:28.533Z,27.25
2022-10-05T09:46:28.761Z,27.42
2022-10-05T09:47:28.922Z,27.58
2022-10-05T09:48:29.092Z,27.65
2022-10-05T09:49:29.237Z,27.70
2022-10-05T09:50:29.416Z,27.71
2022-10-05T09:51:29.586Z,27.67
2022-10-05T09:52:29.775Z,27.63
2022-10-05T09:53:29.936Z,27.58
2022-10-05T09:54:30.106Z,27.52
2022-10-05T09:55:30.292Z,27.48
2022-10-05T09:56:30.438Z,27.47
2022-10-05T09:57:30.636Z,27.37
2022-10-05T09:58:30.776Z,27.30
2022-10-05T09:59:30.944Z,27.27
2022-10-05T10:00:31.106Z,27.21
2022-10-05T10:01:34.081Z,27.17
2022-10-05T10:02:31.556Z,27.08
2022-10-05T10:03:31.679Z,26.92
2022-10-05T10:04:31.797Z,26.75
2022-10-05T10:05:31.977Z,26.63
2022-10-05T10:06:32.179Z,26.56
2022-10-05T10:07:32.316Z,26.45
2022-10-05T10:08:32.497Z,26.38
2022-10-05T10:09:36.517Z,26.29
2022-10-05T10:10:33.869Z,26.28
2022-10-05T10:11:33.040Z,26.22
2022-10-05T10:12:33.188Z,26.18
2022-10-05T10:13:33.368Z,26.10
2022-10-05T10:14:33.549Z,26.05
2022-10-05T10:15:33.774Z,25.98
2022-10-05T10:16:33.909Z,25.91
2022-10-05T10:17:34.079Z,25.90
2022-10-05T10:18:34.261Z,25.84
2022-10-05T10:19:34.438Z,25.73
2022-10-05T10:20:34.619Z,25.62
2022-10-05T10:21:34.828Z,25.54
2022-10-05T10:22:37.583Z,25.51
2022-10-05T10:23:35.130Z,25.46
2022-10-05T10:24:35.320Z,25.43
2022-10-05T10:25:35.491Z,25.38
2022-10-05T10:26:35.691Z,25.36
2022-10-05T10:27:35.863Z,25.38
2022-10-05T10:28:36.091Z,25.38
2022-10-05T10:29:36.191Z,25.41
2022-10-05T10:30:36.671Z,25.44
2022-10-05T10:31:36.549Z,25.47
2022-10-05T10:32:36.701Z,25.48
2022-10-05T10:33:36.889Z,25.48
2022-10-05T10:34:37.119Z,25.46
2022-10-05T10:35:37.268Z,25.44
2022-10-05T10:36:37.453Z,25.44
2022-10-05T10:37:37.605Z,25.46
2022-10-05T10:38:37.792Z,25.44
2022-10-05T10:39:37.974Z,25.41
2022-10-05T10:40:38.156Z,25.36
2022-10-05T10:41:38.364Z,25.33
2022-10-05T10:42:38.553Z,25.28
2022-10-05T10:43:38.683Z,25.22
2022-10-05T10:44:38.874Z,25.16
2022-10-05T10:45:39.053Z,25.11
2022-10-05T10:46:39.334Z,25.10
2022-10-05T10:47:39.419Z,25.08
2022-10-05T10:48:39.611Z,25.10
2022-10-05T10:49:39.783Z,25.10
2022-10-05T10:50:39.964Z,25.16
2022-10-05T10:51:40.164Z,25.22
2022-10-05T10:52:40.356Z,25.22
2022-10-05T10:53:40.524Z,25.23
2022-10-05T10:54:40.705Z,25.23
2022-10-05T10:55:40.896Z,25.18
2022-10-05T10:56:41.096Z,25.16
2022-10-05T10:57:41.265Z,25.13
2022-10-05T10:58:41.436Z,25.06
2022-10-05T10:59:41.623Z,24.99
2022-10-05T11:00:41.812Z,24.96
2022-10-05T11:01:42.072Z,24.95
2022-10-05T11:02:42.238Z,24.96
2022-10-05T11:03:42.316Z,24.99
2022-10-05T11:04:42.504Z,25.01
2022-10-05T11:05:46.416Z,24.95
2022-10-05T11:06:43.856Z,24.92
2022-10-05T11:07:43.027Z,24.88
2022-10-05T11:08:43.176Z,24.88
2022-10-05T11:09:43.347Z,24.86
2022-10-05T11:10:43.536Z,24.85
2022-10-05T11:11:43.717Z,24.85
2022-10-05T11:12:43.907Z,24.88
2022-10-05T11:13:44.049Z,24.89
2022-10-05T11:14:44.227Z,24.93
2022-10-05T11:15:44.469Z,24.96
2022-10-05T11:16:44.586Z,24.99
2022-10-05T11:17:44.729Z,25.04
2022-10-05T11:18:44.924Z,25.07
2022-10-05T11:20:05.255Z,25.08
2022-10-05T11:20:46.278Z,25.10
2022-10-05T11:21:45.478Z,25.13
2022-10-05T11:22:45.628Z,25.18
2022-10-05T11:23:45.821Z,25.23
2022-10-05T11:24:46.012Z,25.29
2022-10-05T11:25:46.148Z,25.35
2022-10-05T11:26:46.718Z,25.41
2022-10-05T11:27:46.508Z,25.47
2022-10-05T11:28:47.661Z,25.51
2022-10-05T11:29:46.880Z,25.59
2022-10-05T11:30:50.330Z,25.60
2022-10-05T11:31:47.644Z,25.68
2022-10-05T11:32:47.410Z,25.72
2022-10-05T11:33:47.592Z,25.75
2022-10-05T11:34:47.769Z,25.80
2022-10-05T11:35:47.950Z,25.81
2022-10-05T11:36:48.150Z,25.78
2022-10-05T11:37:48.290Z,25.77
2022-10-05T11:38:48.470Z,25.80
2022-10-05T11:39:48.651Z,25.84
2022-10-05T11:40:48.841Z,25.83
2022-10-05T11:41:49.475Z,25.83
2022-10-05T11:42:49.183Z,25.83
2022-10-05T11:43:49.350Z,25.80
2022-10-05T11:44:49.533Z,25.83
2022-10-05T11:45:49.712Z,25.83
2022-10-05T11:46:49.950Z,25.83
2022-10-05T11:47:50.052Z,25.85
2022-10-05T11:48:50.234Z,25.87
2022-10-05T11:49:50.412Z,25.90
2022-10-05T11:50:50.831Z,25.93
2022-10-05T11:51:51.282Z,25.96
2022-10-05T11:52:50.943Z,25.95
2022-10-05T11:53:51.122Z,25.95
2022-10-05T11:55:09.755Z,25.93
2022-10-05T11:55:52.483Z,25.90
2022-10-05T11:56:54.513Z,25.85
2022-10-05T11:57:51.858Z,25.80
2022-10-05T11:58:52.033Z,25.69
2022-10-05T11:59:52.234Z,25.59
2022-10-05T12:00:52.403Z,25.50
2022-10-05T12:01:52.599Z,25.47
2022-10-05T12:02:52.938Z,25.43
2022-10-05T12:03:53.038Z,25.43
2022-10-05T12:04:53.125Z,25.43
2022-10-05T12:05:53.304Z,25.44
2022-10-05T12:06:53.504Z,25.44
2022-10-05T12:07:53.674Z,25.41
2022-10-05T12:08:53.855Z,25.35
2022-10-05T12:09:54.040Z,25.26
2022-10-05T12:10:54.215Z,25.21
2022-10-05T12:11:57.742Z,25.13
2022-10-05T12:12:54.555Z,25.11
2022-10-05T12:13:54.745Z,25.07
2022-10-05T12:14:54.935Z,24.99
2022-10-05T12:15:55.098Z,24.96
2022-10-05T12:16:55.286Z,24.91
2022-10-05T12:17:55.417Z,24.88
2022-10-05T12:18:55.604Z,24.80
2022-10-05T12:19:55.778Z,24.77
2022-10-05T12:20:55.959Z,24.78
2022-10-05T12:21:56.177Z,24.77
2022-10-05T12:22:56.753Z,24.74
2022-10-05T12:23:56.486Z,24.73
2022-10-05T12:24:56.638Z,24.73
2022-10-05T12:25:56.825Z,24.73
2022-10-05T12:26:57.055Z,24.66
2022-10-05T12:27:57.230Z,24.68
2022-10-05T12:28:57.338Z,24.63
2022-10-05T12:29:57.514Z,24.65
2022-10-05T12:30:57.708Z,24.63
2022-10-05T12:31:57.920Z,24.61
2022-10-05T12:33:01.845Z,24.58
2022-10-05T12:33:58.217Z,24.60
2022-10-05T12:35:01.752Z,24.61
2022-10-05T12:35:58.565Z,24.61
2022-10-05T12:37:03.973Z,24.65
2022-10-05T12:37:59.938Z,24.66
2022-10-05T12:38:59.100Z,24.68
2022-10-05T12:39:59.275Z,24.66
2022-10-05T12:40:59.449Z,24.65
2022-10-05T12:41:59.650Z,24.61
2022-10-05T12:42:59.799Z,24.61
2022-10-05T12:43:59.970Z,24.58
2022-10-05T12:45:00.172Z,24.55
2022-10-05T12:46:00.373Z,24.55
2022-10-05T12:47:00.479Z,24.57
2022-10-05T12:48:00.659Z,24.57
2022-10-05T12:49:00.840Z,24.57
2022-10-05T12:50:01.093Z,24.58
2022-10-05T12:51:01.220Z,24.58
2022-10-05T12:52:01.365Z,24.58
2022-10-05T12:53:01.548Z,24.58
2022-10-05T12:54:01.720Z,24.58
2022-10-05T12:55:01.900Z,24.55